• Join FlightAware (Why Join?)
  • Login
  • US Flag 
Trick or treat! (Boo!!) 
03:05AM EDT


 

Airport Tracker/Info


-or-


 

Live Flight TrackerFlight Track Log ✈ SWA864 ✈ 01-Jun-2013 ✈ KMDW - KDEN

Flight Track Log - Related Links

Times and Time Zones

All times are in EDT time to prevent confusion due to time zone crossing. See the SWA864 flight status page for this flight to view local times or setup timezone preferences in your user account.

Time Position Orientation Groundspeed Altitude Reporting Facility
EDT Latitude Longitude Course Direction KTS MPH feet Rate Location/Type
10:24AM 41.7667 -87.8000 263° West 164 189 2,800  Level Chicago TRACON
10:25AM 41.7592 -87.8378 255° West 178 205 3,300 720 Climbing Chicago Center
10:26AM 41.7606 -87.9278 271° West 226 260 4,000 1,380 Climbing Chicago Center
10:27AM 41.7669 -88.0228 275° West 254 292 6,200 3,000 Climbing Chicago Center
10:28AM 41.7944 -88.1139 292° West 266 306 10,200 3,120 Climbing Chicago Center
10:29AM 41.8017 -88.2125 276° West 271 312 12,700 2,340 Climbing Chicago Center
10:30AM 41.7312 -88.6088 263° West  Level FlightAware Approximate
10:30AM 41.8042 -88.3500 271° West 309 356 15,100  Level Chicago Center
10:31AM 41.8069 -88.4792 272° West 340 391 17,600 2,640 Climbing Chicago Center
10:32AM 41.8094 -88.6131 271° West 357 411 20,600 2,580 Climbing Chicago Center
10:33AM 41.8122 -88.7531 272° West 371 427 23,000 2,340 Climbing Chicago Center
10:34AM 41.8197 -88.8939 274° West 380 437 25,400 2,040 Climbing Chicago Center
10:35AM 41.8111 -89.0700 266° West 399 459 27,300 1,980 Climbing Chicago Center
10:36AM 41.7978 -89.2131 263° West 394 453 29,500 2,040 Climbing Chicago Center
10:37AM 41.7850 -89.3547 263° West 390 449 31,600 1,800 Climbing Chicago Center
10:38AM 41.7733 -89.4953 264° West 385 443 33,300 1,740 Climbing Chicago Center
10:39AM 41.7603 -89.6389 263° West 381 438 35,200 1,440 Climbing Chicago Center
10:40AM 41.7481 -89.7750 263° West 373 429 36,300 1,320 Climbing Chicago Center
10:41AM 41.7361 -89.9056 263° West 360 414 38,000 780 Climbing Chicago Center
10:42AM 41.7236 -90.0336 263° West 352 405 38,000  Level Chicago Center
10:43AM 41.7097 -90.1889 263° West 351 404 38,000  Level Chicago Center
10:44AM 41.6961 -90.3203 262° West 358 412 38,000  Level Chicago Center
10:45AM 41.6825 -90.4500 262° West 355 409 38,000  Level Chicago Center
10:46AM 41.6703 -90.5772 263° West 349 402 38,000  Level Chicago Center
10:47AM 41.6564 -90.7206 263° West 349 402 38,000  Level Chicago Center
10:48AM 41.6433 -90.8469 262° West 347 399 38,000  Level Chicago Center
10:50AM 41.6300 -90.9733 262° West 345 397 38,000  Level Chicago Center
10:51AM 41.6175 -91.0994 262° West 345 397 38,000  Level Chicago Center
10:52AM 41.6036 -91.2286 262° West 351 404 38,000  Level Chicago Center
10:53AM 41.5903 -91.3550 262° West 349 402 38,000  Level Chicago Center
10:54AM 41.5739 -91.5092 262° West 350 403 38,000  Level Chicago Center
10:55AM 41.5603 -91.6369 262° West 350 403 38,000  Level Chicago Center
10:56AM 41.5464 -91.7639 262° West 349 402 38,000  Level Chicago Center
10:57AM 41.5317 -91.8911 261° West 348 400 38,000  Level Chicago Center
10:58AM 41.5178 -92.0167 262° West 345 397 38,000  Level Chicago Center
10:59AM 41.5033 -92.1439 261° West 347 399 38,000  Level Chicago Center
11:00AM 41.4858 -92.2950 261° West 346 398 38,000  Level Chicago Center
11:01AM 41.4714 -92.4247 262° West 352 405 38,000  Level Chicago Center
11:02AM 41.4550 -92.5531 260° West 354 407 38,000  Level Chicago Center
11:03AM 41.4467 -92.6289 262° West 352 405 38,000  Level Minneapolis Center
11:04AM 41.4314 -92.7581 261° West 354 407 38,000  Level Minneapolis Center
11:05AM 41.4125 -92.9139 261° West 356 410 38,000  Level Minneapolis Center
11:06AM 41.3967 -93.0433 261° West 358 412 38,000  Level Minneapolis Center
11:07AM 41.3808 -93.1761 261° West 362 417 38,000  Level Minneapolis Center
11:08AM 41.3678 -93.3100 263° West 368 423 38,000  Level Minneapolis Center
11:09AM 41.3867 -93.4503 280° West 386 444 38,000  Level Minneapolis Center
11:10AM 41.3897 -93.6133 271° West 373 429 38,000 -420 Level Minneapolis Center
11:11AM 41.3800 -93.7506 265° West 374 430 37,200 -840 Descending Minneapolis Center
11:12AM 41.3733 -93.8792 266° West 362 417 36,300 -960 Descending Minneapolis Center
11:13AM 41.3664 -94.0094 266° West 357 411 35,300 -1,020 Descending Minneapolis Center
11:14AM 41.3583 -94.1442 265° West 364 419 34,300 -660 Descending Minneapolis Center
11:15AM 41.3506 -94.2917 266° West 374 430 34,000 -180 Descending Minneapolis Center
11:16AM 41.3414 -94.4350 265° West 383 441 34,000  Level Minneapolis Center
11:17AM 41.3328 -94.5783 265° West 388 447 34,000  Level Minneapolis Center
11:18AM 41.3206 -94.7550 265° West 396 456 34,000  Level Minneapolis Center
11:19AM 41.3117 -94.9042 266° West 403 464 34,000  Level Minneapolis Center
11:20AM 41.3014 -95.0553 265° West 407 468 34,000  Level Minneapolis Center
11:21AM 41.2908 -95.2047 265° West 407 468 34,000  Level Minneapolis Center
11:22AM 41.2803 -95.3542 265° West 405 466 34,000  Level Minneapolis Center
11:23AM 41.2686 -95.5039 264° West 406 467 34,000  Level Minneapolis Center
11:24AM 41.2586 -95.6583 265° West 409 471 34,000  Level Minneapolis Center
11:25AM 41.2481 -95.8072 265° West 405 466 34,000  Level Minneapolis Center
11:26AM 41.2364 -95.9586 264° West 409 471 34,000  Level Minneapolis Center
11:27AM 41.2219 -96.1406 264° West 412 474 34,000  Level Minneapolis Center
11:28AM 41.2106 -96.2922 264° West 412 474 34,000  Level Minneapolis Center
11:29AM 41.2008 -96.4203 264° West 412 474 34,000  Level Minneapolis Center
11:30AM 41.1856 -96.6036 264° West 415 478 34,000  Level Minneapolis Center
11:31AM 41.1728 -96.7564 264° West 417 480 34,000  Level Minneapolis Center
11:32AM 41.1600 -96.9111 264° West 420 483 34,000  Level Minneapolis Center
11:33AM 41.1469 -97.0658 264° West 423 487 34,000  Level Minneapolis Center
11:34AM 41.1339 -97.2214 264° West 424 488 34,000  Level Minneapolis Center
11:35AM 41.1206 -97.3756 264° West 423 487 34,000  Level Minneapolis Center
11:36AM 41.1069 -97.5244 263° West 424 488 34,000  Level Minneapolis Center
11:37AM 41.0911 -97.7111 264° West 425 489 34,000  Level Minneapolis Center
11:38AM 41.0769 -97.8669 263° West 425 489 34,000  Level Minneapolis Center
11:39AM 41.0628 -98.0239 263° West 428 493 34,000  Level Minneapolis Center
11:41AM 41.0469 -98.1800 262° West 427 491 34,000  Level Minneapolis Center
11:42AM 41.0325 -98.3389 263° West 431 496 34,000  Level Minneapolis Center
11:43AM 41.0167 -98.5025 263° West 433 498 34,000  Level Minneapolis Center
11:44AM 41.0006 -98.6617 262° West 434 499 34,000  Level Minneapolis Center
11:45AM 40.9842 -98.8208 262° West 436 502 34,000  Level Minneapolis Center
11:45AM 40.9756 -98.9119 263° West 436 502 34,000  Level Denver Center
11:46AM 40.9583 -99.0883 263° West 434 499 34,000  Level Denver Center
11:47AM 40.9433 -99.2389 263° West 432 497 34,000  Level Denver Center
11:48AM 40.9267 -99.3964 262° West 432 497 34,000  Level Denver Center
11:49AM 40.9203 -99.4597 262° West 432 497 34,000  Level Minneapolis Center
11:50AM 40.9047 -99.6147 262° West 428 493 34,000  Level Minneapolis Center
11:50AM 40.8933 -99.7089 261° West 430 495 34,000  Level Denver Center
11:51AM 40.8733 -99.8847 262° West 426 490 34,000  Level Denver Center
11:52AM 40.8572 -100.0336 262° West 428 493 34,000  Level Denver Center
11:53AM 40.8378 -100.2072 262° West 427 491 34,000  Level Denver Center
11:54AM 40.8206 -100.3558 261° West 429 494 34,000  Level Denver Center
11:55AM 40.8011 -100.5289 262° West 427 491 34,000  Level Denver Center
11:56AM 40.7842 -100.6706 261° West 426 490 34,000  Level Denver Center
11:58AM 40.7569 -100.8344 258° West 433 498 34,000  Level Denver Center
11:59AM 40.7289 -101.0061 258° West 427 491 34,000  Level Denver Center
12:00PM 40.7036 -101.1539 257° West 430 495 34,000  Level Denver Center
12:01PM 40.6781 -101.2994 257° West 428 493 34,000  Level Denver Center
12:02PM 40.6478 -101.4697 257° West 428 493 34,000  Level Denver Center
12:03PM 40.6222 -101.6158 257° West 429 494 34,000  Level Denver Center
12:04PM 40.5911 -101.7847 256° West 427 491 34,000  Level Denver Center
12:05PM 40.5653 -101.9311 257° West 429 494 34,000  Level Denver Center
12:06PM 40.5331 -102.0994 256° West 425 489 34,000  Level Denver Center
12:07PM 40.5069 -102.2439 257° West 425 489 34,000  Level Denver Center
12:08PM 40.4758 -102.4111 256° West 423 487 34,000  Level Denver Center
12:09PM 40.4500 -102.5550 257° West 423 487 34,000  Level Denver Center
12:10PM 40.4236 -102.6981 256° West 424 488 34,000  Level Denver Center
12:11PM 40.3947 -102.8458 256° West 420 483 34,000 -120 Level Denver Center
12:12PM 40.3561 -103.0556 256° West 423 487 33,800 -1,440 Descending Denver Center
12:13PM 40.3272 -103.2031 256° West 419 482 31,100 -2,520 Descending Denver Center
12:14PM 40.2981 -103.3508 256° West 421 484 28,600 -2,280 Descending Denver Center
12:15PM 40.2700 -103.4942 256° West 409 471 26,400 -2,160 Descending Denver Center
12:16PM 40.2428 -103.6333 256° West 396 456 24,200 -2,160 Descending Denver Center
12:17PM 40.2117 -103.7908 256° West 394 453 22,000 -1,560 Descending Denver Center
12:18PM 40.1781 -103.9050 249° West 341 392 21,000 -1,260 Descending Denver Center
12:19PM 40.1292 -104.0058 238° Southwest 330 380 19,400 -1,620 Descending Denver Center
12:20PM 40.0808 -104.1119 239° Southwest 316 364 17,700 -1,560 Descending Denver Center
12:21PM 40.0336 -104.2136 239° Southwest 325 374 16,200 -1,320 Descending Denver Center
12:22PM 39.9850 -104.3167 238° Southwest 302 348 15,000 -1,020 Descending Denver Center
12:24PM 39.9467 -104.4000 239° Southwest 270 311 14,100 -1,020 Descending Denver Center
12:25PM 39.9094 -104.4794 239° Southwest 258 297 13,000 -1,260 Descending Denver Center
12:26PM 39.8331 -104.5006 192° South 272 313 11,500 -1,200 Descending Denver Center
12:27PM 39.7603 -104.5022 181° South 259 298 10,600 -1,140 Descending Denver Center
12:28PM 39.6928 -104.5033 181° South 243 280 9,200 -1,260 Descending Denver Center
12:29PM 39.6458 -104.5469 216° Southwest 216 249 8,000 -660 Descending Denver Center
12:30PM 39.6539 -104.6122 279° West 187 215 7,900 -540 Descending Denver Center
12:31PM 39.7006 -104.6425 333° Northwest 185 213 7,000 -480 Descending Denver Center
12:32PM 39.7497 -104.6428 360° North 165 190 7,000 -420 Level Denver Center
12:33PM 39.7922 -104.6422 North 153 176 6,200 -780 Descending Denver Center
12:34PM 39.8347 -104.6419 360° North 142 163 5,400 -780 Descending Denver Center
12:36PM 39.8500 -104.6667 North  Level FlightAware Approximate
12:43PM 39.8617 -104.6732 North  Level Estimated
12:44PM 39.8617 -104.6732 North  Level Estimated
12:45PM 39.8617 -104.6732 North  Level Estimated